Time;durP1;ratioP1;P1;durP2;ratioP2;P2;SDS_P1;SDS_P2;PMS_P1;PMS_P2;Temp;Humidity;BMP_temperature;BMP_pressure;BME280_temperature;BME280_humidity;BME280_pressure;Samples;Min_cycle;Max_cycle;Signal;HPM_P1;HPM_P2
2023/03/30 00:00:52;;;;;;;3.83;2.67;;;;;;;17.68;49.24;97022.84;5060065;28;20187;-92
2023/03/30 00:03:21;;;;;;;3.83;2.53;;;;;;;18.54;49.35;97165.84;5076285;28;20205;-92
2023/03/30 00:05:55;;;;;;;2.80;2.20;;;;;;;18.42;49.28;97139.97;5041723;28;20260;-93
2023/03/30 00:08:27;;;;;;;2.50;2.20;;;;;;;18.98;49.38;97231.91;5043535;28;20210;-92
2023/03/30 00:11:02;;;;;;;2.73;2.40;;;;;;;18.12;49.25;97074.44;5067576;28;20202;-93
2023/03/30 00:13:30;;;;;;;3.17;2.57;;;;;;;17.75;49.48;97025.66;5052788;28;20284;-92
2023/03/30 00:15:56;;;;;;;2.70;2.30;;;;;;;17.98;49.35;97045.16;5081486;28;20200;-92
2023/03/30 00:18:23;;;;;;;3.10;2.67;;;;;;;18.85;49.48;97205.16;5061356;28;20185;-92
2023/03/30 00:20:50;;;;;;;2.00;1.87;;;;;;;16.92;49.24;96882.03;5083627;28;20178;-91
2023/03/30 00:23:21;;;;;;;2.60;2.10;;;;;;;18.31;49.36;97103.06;5078606;28;20217;-92
2023/03/30 00:25:48;;;;;;;3.13;2.70;;;;;;;17.51;49.39;96951.09;5056278;28;20185;-91
2023/03/30 00:28:14;;;;;;;3.30;2.40;;;;;;;16.99;49.45;96853.50;5078548;28;20185;-91
2023/03/30 00:30:41;;;;;;;2.73;2.30;;;;;;;18.00;49.64;97024.88;5079043;28;20216;-92
2023/03/30 00:33:10;;;;;;;2.57;2.30;;;;;;;19.25;49.68;97243.03;5063528;28;20219;-92
2023/03/30 00:35:36;;;;;;;2.80;2.50;;;;;;;17.38;49.52;96922.66;5045508;28;20272;-92
2023/03/30 00:38:04;;;;;;;2.60;2.30;;;;;;;16.88;49.40;96859.88;5085275;28;20181;-92
2023/03/30 00:40:32;;;;;;;3.73;2.20;;;;;;;19.24;49.55;97244.72;5064358;28;20181;-91
2023/03/30 00:43:06;;;;;;;2.50;2.30;;;;;;;18.26;49.49;97067.31;5060949;28;20193;-93
2023/03/30 00:45:33;;;;;;;2.40;2.20;;;;;;;18.52;49.47;97130.19;5072623;28;20211;-92
2023/03/30 00:48:07;;;;;;;2.43;2.20;;;;;;;18.61;49.47;97127.06;5061845;28;20249;-91
2023/03/30 00:50:39;;;;;;;2.30;2.07;;;;;;;18.67;49.80;97153.59;5061964;28;20177;-92
2023/03/30 00:53:10;;;;;;;2.53;2.33;;;;;;;18.42;49.69;97106.91;5059622;28;20309;-91
2023/03/30 00:55:38;;;;;;;2.70;2.50;;;;;;;18.34;49.54;97085.38;5044949;28;20201;-92
2023/03/30 00:58:05;;;;;;;3.17;2.30;;;;;;;17.98;49.41;97029.03;5061079;28;20177;-92
2023/03/30 01:00:33;;;;;;;2.83;2.30;;;;;;;18.42;49.56;97104.34;5059775;28;20183;-92
2023/03/30 01:03:01;;;;;;;4.00;2.60;;;;;;;18.20;49.90;97056.91;5059310;28;20219;-91
2023/03/30 01:05:28;;;;;;;2.87;2.20;;;;;;;18.01;49.49;97024.06;5060818;28;20189;-93
2023/03/30 01:07:56;;;;;;;3.47;2.40;;;;;;;17.61;49.66;96967.53;5083422;28;20211;-93
2023/03/30 01:10:26;;;;;;;2.67;2.30;;;;;;;16.97;49.41;96862.75;5061195;28;20216;-92
2023/03/30 01:12:52;;;;;;;2.67;2.30;;;;;;;18.34;49.63;97096.44;5076380;28;20220;-91
2023/03/30 01:15:19;;;;;;;3.10;2.27;;;;;;;18.65;49.63;97134.03;5064847;28;20188;-92
2023/03/30 01:18:46;;;;;;;2.00;1.90;;;;;;;18.47;49.48;97088.44;5057728;28;20194;-92
2023/03/30 01:21:13;;;;;;;2.83;2.40;;;;;;;19.21;49.17;97210.63;5008343;28;20859;-92
2023/03/30 01:24:26;;;;;;;2.67;2.47;;;;;;;19.12;49.33;97190.81;5089024;28;20231;-92
2023/03/30 01:27:12;;;;;;;2.80;2.30;;;;;;;19.21;49.75;97201.31;5068225;28;20185;-92
2023/03/30 01:29:43;;;;;;;4.10;2.23;;;;;;;18.84;49.48;97134.69;5082075;28;20185;-92
2023/03/30 01:32:28;;;;;;;2.67;2.20;;;;;;;19.22;49.46;97191.97;5055616;28;20607;-90
2023/03/30 01:35:05;;;;;;;2.60;2.33;;;;;;;18.73;49.43;97115.63;5079629;28;20247;-92
2023/03/30 01:37:51;;;;;;;2.70;2.20;;;;;;;19.21;49.58;97196.22;5067937;28;20192;-92
2023/03/30 01:40:43;;;;;;;3.60;2.80;;;;;;;18.26;49.54;97051.19;5074627;28;20208;-92
2023/03/30 01:43:15;;;;;;;2.53;2.27;;;;;;;18.25;49.44;97037.59;5071581;28;20283;-92
2023/03/30 01:45:46;;;;;;;3.93;2.13;;;;;;;19.22;49.78;97205.56;5063129;28;20215;-93
2023/03/30 01:48:14;;;;;;;2.60;2.30;;;;;;;19.23;49.47;97206.44;5081375;28;20208;-90
2023/03/30 01:50:49;;;;;;;2.17;1.97;;;;;;;18.91;49.69;97151.00;5076830;28;20181;-92
2023/03/30 01:53:24;;;;;;;2.63;2.30;;;;;;;17.81;49.82;96958.94;5065287;28;20257;-92
2023/03/30 01:55:56;;;;;;;2.63;2.27;;;;;;;19.23;49.73;97207.31;5064838;28;20195;-91
2023/03/30 01:58:40;;;;;;;2.33;2.13;;;;;;;19.22;49.61;97203.03;5063372;28;20177;-90
2023/03/30 02:01:16;;;;;;;2.00;1.87;;;;;;;18.76;49.74;97136.09;5061301;28;20197;-91
2023/03/30 02:03:45;;;;;;;2.40;2.20;;;;;;;17.42;49.91;96921.94;5077462;28;20203;-92
2023/03/30 02:06:16;;;;;;;2.77;2.27;;;;;;;16.56;49.63;96761.44;5057691;28;20188;-90
2023/03/30 02:08:43;;;;;;;2.40;2.20;;;;;;;18.15;49.67;97046.59;5049855;28;20177;-93
2023/03/30 02:11:10;;;;;;;2.43;2.20;;;;;;;18.88;49.67;97171.28;5058526;28;20258;-91
2023/03/30 02:13:37;;;;;;;2.50;2.17;;;;;;;18.25;49.71;97068.13;5056860;28;20232;-92
2023/03/30 02:16:32;;;;;;;3.37;2.37;;;;;;;19.19;49.77;97218.19;5042862;28;20212;-92
2023/03/30 02:18:59;;;;;;;2.20;2.00;;;;;;;18.71;49.69;97141.88;5056115;28;20194;-92
2023/03/30 02:21:26;;;;;;;2.50;2.30;;;;;;;18.07;49.63;97022.59;5060553;28;20177;-92
2023/03/30 02:23:53;;;;;;;2.50;2.30;;;;;;;18.00;49.74;97009.63;5075407;28;20224;-92
2023/03/30 02:26:21;;;;;;;2.20;2.00;;;;;;;19.12;49.70;97185.72;5044244;28;20203;-92
2023/03/30 02:28:52;;;;;;;2.77;2.10;;;;;;;17.98;49.90;97008.69;5044820;28;20191;-94
2023/03/30 02:31:22;;;;;;;2.77;2.50;;;;;;;16.61;49.66;96770.06;5060684;28;20207;-91
2023/03/30 02:33:55;;;;;;;2.63;2.30;;;;;;;19.20;49.67;97191.94;5046386;28;20250;-91
2023/03/30 02:37:08;;;;;;;2.90;2.13;;;;;;;19.21;49.83;97193.66;5077695;28;20216;-91
2023/03/30 02:40:13;;;;;;;2.30;1.97;;;;;;;19.22;49.58;97176.69;5073594;28;20173;-92
2023/03/30 02:43:02;;;;;;;2.30;2.10;;;;;;;19.23;49.21;97160.59;5072317;28;20189;-93
2023/03/30 02:45:52;;;;;;;2.77;2.23;;;;;;;19.22;49.53;97116.41;5068643;28;20212;-93
2023/03/30 02:48:55;;;;;;;2.27;2.00;;;;;;;19.22;49.61;97118.94;5075758;28;20184;-92
2023/03/30 02:51:36;;;;;;;2.20;1.93;;;;;;;16.84;49.76;96741.31;5078123;28;20208;-94
2023/03/30 02:54:19;;;;;;;2.43;2.03;;;;;;;17.63;49.50;96905.81;5061994;28;20229;-91
2023/03/30 02:57:12;;;;;;;2.23;2.00;;;;;;;16.85;49.97;96765.88;5060977;28;20191;-92
2023/03/30 02:59:51;;;;;;;2.33;2.13;;;;;;;16.79;49.38;96758.06;5039929;28;20181;-93
2023/03/30 03:02:30;;;;;;;2.60;1.97;;;;;;;17.52;49.72;96866.47;5084516;28;20207;-92
2023/03/30 03:05:06;;;;;;;2.90;2.00;;;;;;;17.28;49.74;96840.19;5062169;28;20192;-93
2023/03/30 03:07:50;;;;;;;2.17;1.93;;;;;;;16.86;49.83;96774.34;5042678;28;20260;-94
2023/03/30 03:10:20;;;;;;;2.70;2.37;;;;;;;16.70;49.78;96739.97;5043108;28;20211;-92
2023/03/30 03:12:56;;;;;;;2.37;2.00;;;;;;;18.15;49.61;96970.31;5042689;28;20209;-92
2023/03/30 03:15:24;;;;;;;2.20;2.00;;;;;;;16.79;49.68;96725.06;5065031;28;20197;-90
2023/03/30 03:17:51;;;;;;;2.60;2.37;;;;;;;17.04;49.79;96749.59;5059465;28;20228;-92
2023/03/30 03:20:21;;;;;;;1.93;1.83;;;;;;;17.63;49.71;96871.91;5036809;28;20189;-92
2023/03/30 03:23:01;;;;;;;2.37;2.17;;;;;;;17.84;49.79;96904.00;5052967;28;20207;-92
2023/03/30 03:25:44;;;;;;;2.10;1.90;;;;;;;18.00;49.70;96967.25;5061707;28;20235;-93
2023/03/30 03:28:14;;;;;;;2.67;2.10;;;;;;;17.08;49.84;96820.00;5044509;28;20186;-91
2023/03/30 03:30:57;;;;;;;4.50;2.20;;;;;;;16.54;49.64;96688.63;5046814;28;20207;-90
2023/03/30 03:33:26;;;;;;;2.67;1.93;;;;;;;17.35;49.67;96843.81;5071160;28;20222;-93
2023/03/30 03:35:53;;;;;;;2.67;2.20;;;;;;;17.58;49.75;96874.28;5059960;28;20208;-94
2023/03/30 03:38:35;;;;;;;2.13;1.93;;;;;;;18.11;49.45;96996.44;5047716;28;20179;-92
2023/03/30 03:41:18;;;;;;;2.30;1.97;;;;;;;16.32;49.73;96659.09;5045097;28;20201;-92
2023/03/30 03:43:45;;;;;;;1.90;1.80;;;;;;;17.60;49.80;96893.00;5043790;28;20204;-93
2023/03/30 03:46:27;;;;;;;2.67;2.00;;;;;;;17.65;49.57;96898.25;5061801;28;20192;-92
2023/03/30 03:49:13;;;;;;;2.57;1.90;;;;;;;17.09;49.60;96798.88;5061015;28;20181;-91
2023/03/30 03:51:49;;;;;;;2.47;2.27;;;;;;;16.59;49.57;96715.91;5045430;28;20185;-92
2023/03/30 03:57:05;;;;;;;2.07;1.87;;;;;;;17.62;49.72;96898.13;5105437;22;20228;-91
2023/03/30 03:59:35;;;;;;;2.87;2.20;;;;;;;16.30;49.53;96669.19;5049610;28;20185;-92
2023/03/30 04:02:04;;;;;;;2.10;1.83;;;;;;;17.56;49.70;96911.47;5026622;28;20177;-92
2023/03/30 04:04:57;;;;;;;2.10;1.90;;;;;;;16.33;49.42;96698.84;5064215;28;20200;-91
2023/03/30 04:08:09;;;;;;;2.90;2.07;;;;;;;16.71;49.99;96759.44;5075888;23;20221;-91
2023/03/30 04:11:49;;;;;;;2.37;2.10;;;;;;;18.95;50.02;97127.41;5073953;28;20206;-92
2023/03/30 04:14:40;;;;;;;2.80;2.03;;;;;;;17.68;49.86;96896.66;5061311;28;21041;-93
2023/03/30 04:18:10;;;;;;;6.17;1.80;;;;;;;19.29;49.85;97174.44;5071748;28;20241;-90
2023/03/30 04:21:01;;;;;;;;;;;;;;;;;;;;;
2023/03/30 04:23:44;;;;;;;2.17;1.90;;;;;;;16.84;49.71;96727.78;5057386;28;20212;-91
2023/03/30 04:26:35;;;;;;;2.30;2.10;;;;;;;18.06;49.62;96951.34;5071348;28;20240;-91
2023/03/30 04:29:19;;;;;;;2.97;2.13;;;;;;;16.44;49.70;96690.00;5069722;28;20203;-90
2023/03/30 04:32:04;;;;;;;4.67;2.17;;;;;;;17.72;49.84;96895.09;5047007;28;20173;-92
2023/03/30 04:34:41;;;;;;;2.87;2.37;;;;;;;16.30;49.78;96670.84;5043840;28;20267;-91
2023/03/30 04:37:29;;;;;;;3.70;2.17;;;;;;;17.72;49.88;96901.03;5050765;28;20211;-91
2023/03/30 04:40:16;;;;;;;4.90;2.13;;;;;;;17.69;49.76;96878.06;5065848;28;20178;-90
2023/03/30 04:43:10;;;;;;;;;;;;;;;;;;;;;
2023/03/30 04:45:58;;;;;;;3.23;1.90;;;;;;;16.98;49.97;96788.34;5064121;28;20271;-89
2023/03/30 04:48:25;;;;;;;6.53;2.40;;;;;;;17.97;49.54;96956.13;5037745;28;20189;-91
2023/03/30 04:50:53;;;;;;;3.83;2.40;;;;;;;16.84;49.58;96743.00;5046008;28;20188;-92
2023/03/30 04:53:39;;;;;;;4.37;2.57;;;;;;;17.68;49.73;96895.81;5046718;28;20247;-91
2023/03/30 04:56:15;;;;;;;3.70;2.40;;;;;;;17.97;49.57;96935.78;5111105;22;20360;-91
2023/03/30 04:58:47;;;;;;;3.10;2.30;;;;;;;19.34;49.67;97177.13;5021422;28;20219;-92
2023/03/30 05:01:14;;;;;;;8.20;2.63;;;;;;;17.11;49.58;96787.94;5239331;23;20225;-92
2023/03/30 05:03:42;;;;;;;5.07;2.30;;;;;;;16.44;49.42;96672.25;5040352;28;20209;-94
2023/03/30 05:06:28;;;;;;;3.47;2.27;;;;;;;17.71;49.78;96878.13;5047613;28;20189;-92
2023/03/30 05:08:55;;;;;;;5.73;2.27;;;;;;;17.04;49.47;96774.97;5047009;28;20173;-92
2023/03/30 05:11:36;;;;;;;2.67;1.90;;;;;;;19.33;49.71;97143.13;5048514;28;20201;-90
2023/03/30 05:14:11;;;;;;;5.30;2.27;;;;;;;17.81;49.36;96910.66;5039896;28;20235;-91
2023/03/30 05:16:41;;;;;;;3.07;1.87;;;;;;;17.01;49.17;96747.84;5040065;28;20264;-94
2023/03/30 05:19:12;;;;;;;4.63;2.23;;;;;;;17.04;49.29;96742.88;5043749;28;20212;-92
2023/03/30 05:21:40;;;;;;;4.77;2.10;;;;;;;16.51;49.17;96660.63;5047083;28;20177;-91
2023/03/30 05:24:13;;;;;;;4.67;2.30;;;;;;;17.54;49.31;96820.78;5068938;23;20212;-90
2023/03/30 05:27:06;;;;;;;3.00;2.10;;;;;;;19.14;49.22;97110.22;5079183;28;20185;-91
2023/03/30 05:29:48;;;;;;;2.63;2.03;;;;;;;19.39;49.08;97137.38;5064216;28;20206;-91
2023/03/30 05:32:57;;;;;;;3.43;1.97;;;;;;;16.29;48.96;96596.44;5082670;28;20169;-91
2023/03/30 05:35:57;;;;;;;3.60;2.20;;;;;;;17.89;49.10;96866.88;5096455;28;20192;-90
2023/03/30 05:38:38;;;;;;;3.00;2.20;;;;;;;17.59;49.21;96831.97;5071907;28;20200;-94
2023/03/30 05:41:05;;;;;;;2.90;2.20;;;;;;;17.15;49.33;96730.53;5054175;28;20195;-93
2023/03/30 05:43:47;;;;;;;6.37;2.70;;;;;;;17.25;49.49;96728.34;5099414;28;20200;-93
2023/03/30 05:46:28;;;;;;;7.13;2.83;;;;;;;17.04;49.32;96722.56;5074071;28;20181;-91
2023/03/30 05:49:00;;;;;;;4.07;2.30;;;;;;;16.95;49.34;96701.94;5077411;28;20181;-93
2023/03/30 05:51:45;;;;;;;9.30;2.63;;;;;;;16.97;49.44;96722.31;5079303;23;20233;-91
2023/03/30 05:54:12;;;;;;;12.37;3.07;;;;;;;17.31;49.52;96786.97;5021194;28;20214;-92
2023/03/30 06:55:56;;;;;;;7.73;3.17;;;;;;;17.29;51.01;96717.47;5326585;23;20274;-93
2023/03/30 06:58:23;;;;;;;16.87;3.50;;;;;;;19.13;52.34;97024.41;4942092;28;20196;-95
2023/03/30 07:01:10;;;;;;;15.27;3.40;;;;;;;17.52;52.49;96766.50;4928911;28;20211;-93
2023/03/30 07:03:38;;;;;;;18.20;3.50;;;;;;;16.95;53.02;96643.56;4937286;28;20205;-95
2023/03/30 07:06:08;;;;;;;19.47;3.37;;;;;;;17.78;52.78;96798.72;4932687;29;20184;-92
2023/03/30 07:08:35;;;;;;;15.33;3.57;;;;;;;19.30;53.06;97065.75;4915804;29;20226;-93
2023/03/30 07:11:03;;;;;;;14.73;3.33;;;;;;;18.19;52.91;96833.97;4947535;28;20189;-95
2023/03/30 07:13:31;;;;;;;21.60;4.03;;;;;;;17.91;53.31;96781.38;4915131;29;20295;-95
2023/03/30 07:15:58;;;;;;;16.37;4.30;;;;;;;18.72;53.47;96922.16;4937191;28;20208;-94
2023/03/30 07:18:24;;;;;;;36.53;4.10;;;;;;;17.28;53.16;96657.34;4911787;29;20203;-94
2023/03/30 07:20:52;;;;;;;22.83;4.00;;;;;;;17.91;53.29;96750.88;4930740;29;20260;-94
2023/03/30 07:23:19;;;;;;;18.97;3.90;;;;;;;17.70;53.79;96695.97;4910091;29;20293;-94
2023/03/30 07:25:45;;;;;;;16.20;3.40;;;;;;;17.30;54.61;96622.72;4931895;28;20185;-95
2023/03/30 07:28:13;;;;;;;45.40;5.60;;;;;;;18.18;54.78;96779.69;4910496;28;20208;-94
2023/03/30 07:30:40;;;;;;;28.33;6.37;;;;;;;19.22;55.38;96945.75;4918233;28;20192;-94
2023/03/30 07:33:07;;;;;;;32.73;6.67;;;;;;;19.17;54.85;96938.78;4941894;29;20292;-95
2023/03/30 07:35:33;;;;;;;17.93;4.53;;;;;;;18.70;55.91;96839.78;4921765;29;20177;-93
2023/03/30 07:38:01;;;;;;;18.73;4.63;;;;;;;18.13;56.50;96748.19;4915894;28;20231;-94
2023/03/30 07:40:29;;;;;;;20.30;5.43;;;;;;;17.85;55.81;96698.97;4923912;29;20189;-94
2023/03/30 07:42:57;;;;;;;17.63;4.23;;;;;;;19.23;55.00;96927.09;4927965;29;20197;-95
2023/03/30 07:45:23;;;;;;;13.57;4.33;;;;;;;19.05;54.94;96906.19;4931418;29;20192;-94
2023/03/30 07:47:50;;;;;;;8.43;3.77;;;;;;;18.47;54.42;96789.91;4932176;28;20293;-94
2023/03/30 07:50:17;;;;;;;16.67;4.13;;;;;;;18.88;54.89;96878.50;4917441;29;20225;-93
2023/03/30 07:52:44;;;;;;;16.70;4.03;;;;;;;18.50;54.85;96835.81;4912361;28;20213;-93
2023/03/30 07:55:10;;;;;;;28.43;5.63;;;;;;;19.17;54.68;96933.69;4918381;29;20228;-91
2023/03/30 07:57:37;;;;;;;30.00;6.43;;;;;;;19.03;54.83;96896.78;4919048;29;20221;-91
2023/03/30 08:00:05;;;;;;;31.13;6.30;;;;;;;19.15;54.00;96892.91;4947798;28;20185;-93
2023/03/30 08:02:32;;;;;;;23.13;5.97;;;;;;;18.54;53.95;96814.72;4949612;28;20192;-93
2023/03/30 08:04:59;;;;;;;27.63;6.30;;;;;;;17.70;54.26;96642.59;4910681;29;20228;-91
2023/03/30 08:07:27;;;;;;;23.90;5.87;;;;;;;18.14;55.00;96709.22;4920565;29;20220;-94
2023/03/30 08:09:54;;;;;;;19.67;4.93;;;;;;;17.66;54.94;96623.88;4923298;29;20212;-94
2023/03/30 08:12:21;;;;;;;23.23;5.03;;;;;;;18.74;55.04;96826.34;4928098;28;20189;-92
2023/03/30 08:14:48;;;;;;;19.93;4.43;;;;;;;19.22;53.78;96897.34;4911455;29;20232;-93
2023/03/30 08:17:18;;;;;;;19.17;4.70;;;;;;;19.51;54.13;96954.28;4921406;29;20221;-95
2023/03/30 08:19:45;;;;;;;22.57;4.60;;;;;;;18.11;53.59;96705.72;4932158;29;20225;-95
2023/03/30 08:22:12;;;;;;;22.43;4.30;;;;;;;18.30;53.23;96748.69;4929722;29;20195;-91
2023/03/30 08:24:38;;;;;;;18.17;4.20;;;;;;;19.45;53.71;96957.50;4911617;29;20220;-94
2023/03/30 08:27:05;;;;;;;16.93;4.27;;;;;;;19.42;53.44;96941.28;4931385;29;20235;-93
2023/03/30 08:29:32;;;;;;;17.70;4.57;;;;;;;19.65;52.81;96992.06;4929529;28;20188;-93
2023/03/30 08:31:59;;;;;;;12.47;4.07;;;;;;;19.36;52.78;96946.19;4909930;29;20268;-93
2023/03/30 08:34:26;;;;;;;10.57;3.93;;;;;;;19.07;52.49;96896.06;4909670;29;20249;-94
2023/03/30 08:36:53;;;;;;;22.20;3.70;;;;;;;19.43;52.58;96965.94;4927489;29;20209;-94
2023/03/30 08:39:20;;;;;;;13.30;3.97;;;;;;;19.49;52.14;96997.56;4915258;29;20232;-94
2023/03/30 08:41:58;;;;;;;10.80;3.77;;;;;;;20.08;52.07;97093.59;4934244;29;20231;-94
2023/03/30 08:44:36;;;;;;;9.00;3.50;;;;;;;19.99;51.89;97070.38;4934522;29;20255;-93
2023/03/30 08:47:04;;;;;;;11.33;4.20;;;;;;;19.77;51.97;97030.66;4911094;29;20231;-92
2023/03/30 08:49:37;;;;;;;14.77;3.80;;;;;;;19.10;52.13;96911.44;4922681;29;20260;-94
2023/03/30 08:52:04;;;;;;;9.10;3.20;;;;;;;19.29;52.03;96945.16;4916706;28;20201;-93
2023/03/30 08:54:31;;;;;;;8.63;3.47;;;;;;;19.12;51.96;96930.16;4912783;29;20227;-94
2023/03/30 08:57:08;;;;;;;7.33;3.40;;;;;;;19.23;51.99;96937.28;4930730;29;20189;-94
2023/03/30 08:59:39;;;;;;;9.67;3.87;;;;;;;19.91;52.18;97042.09;4928820;29;20195;-94
2023/03/30 09:02:23;;;;;;;11.00;3.73;;;;;;;19.28;51.96;96942.56;4937044;29;20220;-94
2023/03/30 09:05:17;;;;;;;8.73;3.47;;;;;;;19.87;52.08;97053.03;4935370;28;20228;-92
2023/03/30 09:07:56;;;;;;;7.00;2.87;;;;;;;19.85;52.04;97061.47;4945084;28;20201;-94
2023/03/30 09:10:23;;;;;;;8.83;3.60;;;;;;;18.95;52.13;96919.47;4944215;28;20192;-95
2023/03/30 09:12:51;;;;;;;8.83;3.70;;;;;;;17.95;51.74;96784.88;4933467;29;20185;-94
2023/03/30 09:15:20;;;;;;;9.43;3.83;;;;;;;19.30;52.19;96992.72;4931455;28;20207;-92
2023/03/30 09:17:49;;;;;;;13.03;3.50;;;;;;;18.87;52.26;96938.75;4916684;29;20185;-93
2023/03/30 09:20:23;;;;;;;11.13;3.60;;;;;;;18.20;52.06;96849.25;4931195;29;20192;-94
2023/03/30 09:22:51;;;;;;;8.97;3.57;;;;;;;18.43;52.29;96847.47;4914635;28;20189;-94
2023/03/30 09:25:33;;;;;;;10.83;3.30;;;;;;;19.24;52.57;97030.72;4924284;29;20188;-93
2023/03/30 09:28:06;;;;;;;10.07;3.47;;;;;;;19.68;52.02;97095.78;4945783;28;20368;-93
2023/03/30 09:30:44;;;;;;;9.80;3.70;;;;;;;18.80;52.24;96941.91;4949827;29;20215;-94
2023/03/30 09:33:28;;;;;;;11.83;3.40;;;;;;;18.85;52.62;96953.13;4942745;28;20200;-93
2023/03/30 09:36:04;;;;;;;12.53;3.70;;;;;;;19.63;52.56;97088.00;4931818;29;20212;-94
2023/03/30 09:38:31;;;;;;;11.13;3.87;;;;;;;18.68;52.42;96961.06;4947075;28;20205;-94
2023/03/30 09:41:16;;;;;;;8.73;3.40;;;;;;;19.62;52.37;97093.06;4914341;29;20209;-93
2023/03/30 09:43:45;;;;;;;12.50;3.50;;;;;;;19.21;52.60;97039.94;4917751;29;20229;-92
2023/03/30 09:46:13;;;;;;;8.97;3.83;;;;;;;18.69;52.96;96961.09;4909524;29;20205;-93
2023/03/30 09:48:47;;;;;;;10.53;3.60;;;;;;;18.97;52.70;97008.63;4914886;29;20185;-94
2023/03/30 09:51:27;;;;;;;10.63;3.47;;;;;;;18.51;52.71;96927.44;4913057;29;20201;-94
2023/03/30 09:53:58;;;;;;;7.27;2.83;;;;;;;18.39;52.43;96894.00;4926736;29;20217;-93
2023/03/30 09:56:36;;;;;;;7.33;3.17;;;;;;;18.34;52.65;96900.56;4909659;29;20209;-93
2023/03/30 09:59:31;;;;;;;7.53;3.47;;;;;;;19.62;52.50;97133.84;4928479;29;20248;-95
2023/03/30 10:02:14;;;;;;;9.73;3.10;;;;;;;19.62;52.61;97131.28;4956030;28;20205;-94
2023/03/30 10:04:51;;;;;;;9.40;3.27;;;;;;;19.62;52.67;97137.28;4944409;28;20201;-94
2023/03/30 10:07:51;;;;;;;6.90;3.30;;;;;;;19.63;52.66;97118.59;4949549;28;20196;-93
2023/03/30 10:10:24;;;;;;;8.13;3.50;;;;;;;19.65;52.63;97121.19;4950485;28;20216;-91
2023/03/30 10:12:53;;;;;;;10.23;3.97;;;;;;;19.32;52.70;97056.47;4947908;28;20197;-95
2023/03/30 10:15:22;;;;;;;11.17;4.27;;;;;;;18.95;52.97;97005.19;4947006;28;20248;-94
2023/03/30 10:17:50;;;;;;;17.53;6.33;;;;;;;19.09;53.04;97017.50;4929524;29;20252;-95
2023/03/30 10:20:28;;;;;;;18.40;7.13;;;;;;;18.11;53.50;96868.44;4910062;29;20189;-94
2023/03/30 10:23:03;;;;;;;21.27;7.87;;;;;;;19.22;53.40;97067.16;4913513;29;20212;-94
2023/03/30 10:25:31;;;;;;;20.83;8.10;;;;;;;18.59;53.06;96945.50;4918351;29;20195;-94
2023/03/30 10:28:03;;;;;;;17.07;6.87;;;;;;;18.60;53.64;96949.75;4931453;29;20199;-94
2023/03/30 10:30:30;;;;;;;22.07;7.50;;;;;;;19.66;53.45;97122.94;4915853;29;20596;-94
2023/03/30 10:32:58;;;;;;;18.93;7.63;;;;;;;19.36;53.61;97081.25;4912479;29;20216;-94
2023/03/30 10:35:29;;;;;;;23.43;8.57;;;;;;;19.06;53.64;97034.38;4919247;28;20218;-95
2023/03/30 10:37:57;;;;;;;20.80;7.97;;;;;;;18.53;53.90;96963.13;4914421;29;20186;-94
2023/03/30 10:40:32;;;;;;;22.60;7.70;;;;;;;17.99;53.91;96923.97;4936226;29;20197;-93
2023/03/30 10:43:14;;;;;;;19.63;6.90;;;;;;;19.13;53.97;97077.06;4924554;29;20208;-93
2023/03/30 10:45:46;;;;;;;19.20;7.17;;;;;;;18.20;53.77;96924.69;4921340;29;20201;-92
2023/03/30 10:48:13;;;;;;;20.53;7.23;;;;;;;19.59;54.01;97129.53;4917017;29;20212;-92
2023/03/30 10:51:13;;;;;;;19.20;6.73;;;;;;;19.41;54.06;97105.16;4944107;29;20874;-93
2023/03/30 10:53:49;;;;;;;14.13;6.80;;;;;;;19.59;53.79;97143.94;4921412;29;20235;-93
2023/03/30 10:56:22;;;;;;;20.43;6.60;;;;;;;19.59;54.23;97154.13;4917031;29;20197;-91
2023/03/30 10:59:01;;;;;;;14.53;6.10;;;;;;;19.58;53.86;97155.84;4935830;29;20196;-92
2023/03/30 11:01:43;;;;;;;17.33;6.23;;;;;;;19.59;53.86;97172.84;4940587;29;20236;-94
2023/03/30 11:04:13;;;;;;;23.00;6.83;;;;;;;19.03;54.10;97078.44;4937876;29;20312;-90
2023/03/30 11:06:49;;;;;;;16.10;6.17;;;;;;;19.22;54.24;97110.47;4924929;29;20220;-92
2023/03/30 11:09:17;;;;;;;15.07;6.17;;;;;;;19.04;53.89;97077.63;4911222;29;20209;-92
2023/03/30 11:11:51;;;;;;;14.27;6.13;;;;;;;19.14;53.75;97091.53;4919674;29;20197;-93
2023/03/30 11:14:24;;;;;;;16.40;6.90;;;;;;;19.42;53.94;97137.47;4901199;29;20264;-92
2023/03/30 11:16:56;;;;;;;13.50;5.70;;;;;;;19.62;53.78;97172.97;4916982;29;20264;-91
2023/03/30 11:19:44;;;;;;;14.80;5.60;;;;;;;19.62;53.88;97182.28;4926729;29;20585;-92
2023/03/30 11:22:14;;;;;;;19.53;6.97;;;;;;;19.61;53.54;97183.97;4901374;29;20303;-92
2023/03/30 11:24:42;;;;;;;15.47;6.13;;;;;;;19.29;53.54;97120.06;4918013;29;20617;-93
2023/03/30 11:27:37;;;;;;;18.33;5.80;;;;;;;19.61;53.48;97157.63;4909128;29;20284;-92
2023/03/30 11:30:16;;;;;;;13.20;6.57;;;;;;;19.00;53.40;97057.09;4922001;29;20212;-92
2023/03/30 11:32:52;;;;;;;14.43;6.13;;;;;;;18.92;53.29;97059.41;4900189;29;20212;-93
2023/03/30 11:35:41;;;;;;;17.80;6.50;;;;;;;18.96;53.08;97074.00;4897872;29;20283;-92
2023/03/30 11:38:08;;;;;;;20.67;6.50;;;;;;;19.60;53.10;97176.28;4918578;29;20205;-93
2023/03/30 11:40:57;;;;;;;18.77;6.90;;;;;;;19.41;53.36;97139.16;4954721;28;20566;-92
2023/03/30 11:43:27;;;;;;;16.23;6.53;;;;;;;19.59;53.08;97166.88;4914193;29;20225;-92
2023/03/30 11:46:20;;;;;;;16.40;6.60;;;;;;;19.13;53.04;97072.81;4901130;29;20205;-91
2023/03/30 11:49:32;;;;;;;14.77;7.27;;;;;;;18.78;53.11;97014.84;4911516;29;20219;-93
2023/03/30 11:52:04;;;;;;;17.60;6.97;;;;;;;19.42;53.08;97130.69;4900820;29;20226;-92
2023/03/30 11:54:44;;;;;;;18.57;7.10;;;;;;;19.39;53.22;97115.28;4925825;29;20229;-92
2023/03/30 11:57:58;;;;;;;20.77;7.93;;;;;;;19.09;53.21;97088.84;4903078;29;20220;-92
2023/03/30 12:00:24;;;;;;;16.20;7.20;;;;;;;19.53;53.13;97156.50;4916175;29;20219;-92
2023/03/30 12:03:13;;;;;;;15.30;6.70;;;;;;;19.52;53.04;97147.13;4928482;29;20233;-92
2023/03/30 12:05:58;;;;;;;14.93;6.77;;;;;;;18.97;53.43;97062.09;4931925;29;20424;-92
2023/03/30 12:08:31;;;;;;;19.20;7.27;;;;;;;19.51;53.25;97147.97;4898537;29;20233;-91
2023/03/30 12:11:17;;;;;;;13.70;7.33;;;;;;;19.13;53.16;97077.91;4934907;28;20208;-93
2023/03/30 12:13:44;;;;;;;16.50;7.43;;;;;;;18.91;53.13;97044.09;4919955;29;20314;-91
2023/03/30 12:16:30;;;;;;;18.60;6.30;;;;;;;18.80;53.00;97020.81;4924252;29;20255;-91
2023/03/30 12:19:36;;;;;;;12.40;6.57;;;;;;;19.51;53.15;97125.88;4926150;29;20205;-92
2023/03/30 12:22:38;;;;;;;14.13;7.00;;;;;;;18.77;52.97;96977.44;4940800;29;20560;-92
2023/03/30 12:25:34;;;;;;;18.43;7.43;;;;;;;19.53;53.08;97113.16;4912557;29;20258;-92
2023/03/30 12:28:11;;;;;;;15.47;6.57;;;;;;;19.54;53.12;97131.06;4917924;29;20213;-92
2023/03/30 12:30:55;;;;;;;16.27;7.33;;;;;;;19.30;53.07;97086.16;4917573;29;20217;-93
2023/03/30 12:33:27;;;;;;;16.57;6.40;;;;;;;18.74;52.92;96981.59;4923864;29;20566;-93
2023/03/30 12:35:56;;;;;;;16.60;6.53;;;;;;;19.24;52.90;97063.84;4900128;29;20284;-92
2023/03/30 12:38:24;;;;;;;14.57;6.93;;;;;;;19.03;52.77;97031.72;4901353;29;20209;-92
2023/03/30 12:41:02;;;;;;;12.03;6.10;;;;;;;19.25;52.83;97062.16;4898663;29;20205;-92
2023/03/30 12:43:54;;;;;;;18.27;7.43;;;;;;;19.10;52.63;97033.69;4915991;29;20235;-93
2023/03/30 12:46:27;;;;;;;12.43;6.47;;;;;;;19.59;52.80;97113.34;4929611;29;20826;-92
2023/03/30 12:49:01;;;;;;;16.43;6.73;;;;;;;19.13;52.65;97043.97;4921114;29;20289;-90
2023/03/30 12:51:43;;;;;;;17.90;7.10;;;;;;;19.60;52.55;97113.41;4928506;29;20208;-92
2023/03/30 12:54:36;;;;;;;14.70;7.10;;;;;;;19.61;52.44;97122.81;4935346;29;20236;-91
2023/03/30 12:57:13;;;;;;;15.40;6.57;;;;;;;19.61;52.36;97129.56;4954491;29;20192;-93
2023/03/30 13:00:05;;;;;;;11.50;6.00;;;;;;;19.60;52.04;97125.31;4910476;29;20220;-92
2023/03/30 13:02:40;;;;;;;13.60;6.47;;;;;;;19.59;52.21;97138.84;4955124;29;20216;-92
2023/03/30 13:05:20;;;;;;;9.47;5.60;;;;;;;19.00;51.89;97011.25;4941950;29;20211;-94
2023/03/30 13:07:46;;;;;;;11.80;5.70;;;;;;;18.86;51.93;96987.94;4920181;29;22034;-92
2023/03/30 13:10:28;;;;;;;12.07;6.13;;;;;;;19.58;52.00;97101.44;4942430;29;20205;-93
2023/03/30 13:12:58;;;;;;;12.93;5.37;;;;;;;19.22;52.19;97057.81;4952972;29;20208;-91
2023/03/30 13:15:28;;;;;;;10.17;5.60;;;;;;;19.55;52.02;97111.53;4908365;29;20316;-92